createdAt,value
2022-11-15T00:01:16.188Z,3.70
2022-11-15T00:03:43.032Z,3.70
2022-11-15T00:06:10.629Z,3.60
2022-11-15T00:08:37.480Z,3.70
2022-11-15T00:11:04.620Z,3.70
2022-11-15T00:13:31.817Z,3.80
2022-11-15T00:16:01.120Z,3.70
2022-11-15T00:18:28.932Z,3.80
2022-11-15T00:20:56.128Z,3.90
2022-11-15T00:23:23.007Z,4.00
2022-11-15T00:25:58.515Z,4.00
2022-11-15T00:28:26.815Z,4.00
2022-11-15T00:30:53.909Z,4.20
2022-11-15T00:33:20.763Z,4.10
2022-11-15T00:35:47.613Z,4.10
2022-11-15T00:38:14.456Z,4.10
2022-11-15T00:40:41.402Z,4.20
2022-11-15T00:43:08.220Z,4.20
2022-11-15T00:45:35.115Z,4.30
2022-11-15T00:48:01.932Z,4.20
2022-11-15T00:50:28.716Z,4.20
2022-11-15T00:52:55.525Z,4.20
2022-11-15T00:55:22.327Z,4.20
2022-11-15T00:57:49.307Z,4.20
2022-11-15T01:00:16.544Z,4.30
2022-11-15T01:02:43.367Z,4.20
2022-11-15T01:05:10.163Z,4.20
2022-11-15T01:07:37.308Z,4.10
2022-11-15T01:10:05.459Z,4.20
2022-11-15T01:12:32.872Z,4.10
2022-11-15T01:14:59.854Z,4.20
2022-11-15T01:17:26.959Z,4.10
2022-11-15T01:19:53.820Z,4.10
2022-11-15T01:22:20.630Z,4.10
2022-11-15T01:24:47.440Z,4.00
2022-11-15T01:27:14.279Z,4.00
2022-11-15T01:29:41.097Z,4.00
2022-11-15T01:32:07.887Z,4.10
2022-11-15T01:34:34.927Z,4.00
2022-11-15T01:37:02.115Z,3.80
2022-11-15T01:39:28.936Z,3.80
2022-11-15T01:41:55.987Z,3.70
2022-11-15T01:44:31.940Z,3.70
2022-11-15T01:47:07.088Z,3.60
2022-11-15T01:49:36.546Z,3.40
2022-11-15T01:52:08.502Z,3.40
2022-11-15T01:54:35.442Z,3.40
2022-11-15T01:57:10.732Z,3.40
2022-11-15T01:59:41.734Z,3.40
2022-11-15T02:02:08.718Z,3.30
2022-11-15T02:04:46.509Z,3.30
2022-11-15T02:07:18.333Z,3.30
2022-11-15T02:09:47.000Z,3.40
2022-11-15T02:12:18.071Z,3.40
2022-11-15T02:14:53.542Z,3.40
2022-11-15T02:18:24.810Z,3.50
2022-11-15T02:21:17.457Z,3.50
2022-11-15T02:24:05.314Z,3.60
2022-11-15T02:26:52.515Z,3.50
2022-11-15T02:30:13.556Z,3.60
2022-11-15T02:32:58.049Z,3.50
2022-11-15T02:35:36.580Z,3.30
2022-11-15T02:38:20.868Z,3.20
2022-11-15T02:41:04.279Z,3.10
2022-11-15T02:43:59.483Z,3.00
2022-11-15T02:47:10.939Z,3.00
2022-11-15T02:49:41.047Z,2.90
2022-11-15T02:52:07.836Z,2.80
2022-11-15T02:54:36.358Z,2.80
2022-11-15T02:57:18.089Z,2.80
2022-11-15T02:59:53.452Z,2.70
2022-11-15T03:02:26.714Z,2.70
2022-11-15T03:05:31.381Z,2.60
2022-11-15T03:08:35.427Z,2.60
2022-11-15T03:11:14.534Z,2.60
2022-11-15T03:14:07.918Z,2.60
2022-11-15T03:16:57.443Z,2.60
2022-11-15T03:19:41.989Z,2.50
2022-11-15T03:22:13.473Z,2.30
2022-11-15T03:24:42.029Z,2.20
2022-11-15T03:27:11.091Z,2.20
2022-11-15T03:29:48.942Z,2.10
2022-11-15T03:32:25.549Z,2.10
2022-11-15T03:34:59.994Z,2.10
2022-11-15T03:37:36.351Z,2.00
2022-11-15T03:40:05.264Z,2.00
2022-11-15T03:42:47.261Z,2.00
2022-11-15T03:45:28.232Z,2.10
2022-11-15T03:48:11.702Z,2.00
2022-11-15T03:50:38.924Z,2.00
2022-11-15T03:53:06.266Z,2.00
2022-11-15T03:55:34.040Z,1.90
2022-11-15T03:58:02.641Z,1.90
2022-11-15T04:00:30.111Z,1.90
2022-11-15T04:02:57.443Z,1.90
2022-11-15T04:05:24.617Z,1.80
2022-11-15T04:07:51.427Z,1.90
2022-11-15T04:10:18.501Z,1.90
2022-11-15T04:12:49.808Z,1.90
2022-11-15T04:15:20.563Z,1.90
2022-11-15T04:17:56.600Z,1.90
2022-11-15T04:20:50.411Z,2.00
2022-11-15T04:23:39.590Z,1.90
2022-11-15T04:26:18.762Z,1.90
2022-11-15T04:29:04.592Z,1.90
2022-11-15T04:31:31.396Z,1.90
2022-11-15T04:33:58.200Z,1.80
2022-11-15T04:36:43.882Z,1.70
2022-11-15T04:39:10.707Z,1.70
2022-11-15T04:41:37.561Z,1.70
2022-11-15T04:44:04.364Z,1.80
2022-11-15T04:46:31.130Z,1.80
2022-11-15T04:48:59.277Z,1.90
2022-11-15T04:51:26.802Z,2.00
2022-11-15T04:53:53.932Z,2.00
2022-11-15T04:56:20.754Z,2.10
2022-11-15T04:58:50.643Z,2.30
2022-11-15T05:01:17.995Z,2.40
2022-11-15T05:04:04.719Z,2.50
2022-11-15T05:06:32.388Z,2.70
2022-11-15T05:08:59.603Z,2.80
2022-11-15T05:11:28.117Z,2.80
2022-11-15T05:13:55.278Z,2.90
2022-11-15T05:16:22.131Z,2.90
2022-11-15T05:18:53.183Z,2.90
2022-11-15T05:21:20.035Z,2.70
2022-11-15T05:23:46.928Z,2.50
2022-11-15T05:26:16.299Z,2.30
2022-11-15T05:28:43.107Z,2.10
2022-11-15T05:31:14.128Z,2.00
2022-11-15T05:33:42.258Z,1.90
2022-11-15T05:36:12.532Z,1.80
2022-11-15T05:38:39.462Z,1.80
2022-11-15T05:41:07.016Z,1.80
2022-11-15T05:43:36.690Z,1.80
2022-11-15T05:46:06.126Z,1.80
2022-11-15T05:48:37.160Z,1.80
2022-11-15T05:51:05.450Z,1.90
2022-11-15T05:53:33.140Z,1.90
2022-11-15T05:56:00.494Z,1.90
2022-11-15T05:58:27.325Z,1.90
2022-11-15T06:00:55.819Z,1.90
2022-11-15T06:03:22.613Z,1.90
2022-11-15T06:05:49.369Z,1.90
2022-11-15T06:08:16.155Z,1.90
2022-11-15T06:10:42.965Z,1.80
2022-11-15T06:13:09.840Z,1.90
2022-11-15T06:15:36.623Z,1.90
2022-11-15T06:18:03.584Z,1.90
2022-11-15T06:20:31.330Z,2.00
2022-11-15T06:23:04.449Z,2.00
2022-11-15T06:25:32.128Z,2.00
2022-11-15T06:28:00.419Z,1.90
2022-11-15T06:30:27.667Z,1.80
2022-11-15T06:33:06.440Z,1.70
2022-11-15T06:35:36.282Z,1.70
2022-11-15T06:38:09.771Z,1.70
2022-11-15T06:40:38.340Z,1.70
2022-11-15T06:43:06.435Z,1.80
2022-11-15T06:45:33.848Z,1.90
2022-11-15T06:48:00.635Z,2.10
2022-11-15T06:50:27.391Z,2.20
2022-11-15T06:52:55.419Z,2.40
2022-11-15T06:55:22.303Z,2.80
2022-11-15T06:57:53.266Z,3.00
2022-11-15T07:00:22.618Z,3.40
2022-11-15T07:02:49.865Z,3.60
2022-11-15T07:05:17.165Z,4.00
2022-11-15T07:07:43.936Z,4.20
2022-11-15T07:10:11.041Z,4.50
2022-11-15T07:12:37.831Z,4.80
2022-11-15T07:15:05.317Z,5.00
2022-11-15T07:17:32.683Z,5.10
2022-11-15T07:19:59.513Z,5.40
2022-11-15T07:22:26.291Z,5.40
2022-11-15T07:24:53.081Z,5.70
2022-11-15T07:27:20.021Z,5.90
2022-11-15T07:29:46.817Z,5.40
2022-11-15T07:32:13.629Z,5.40
2022-11-15T07:34:40.433Z,5.70
2022-11-15T07:37:07.258Z,6.20
2022-11-15T07:39:34.080Z,6.50
2022-11-15T07:42:19.747Z,6.60
2022-11-15T07:44:46.509Z,6.80
2022-11-15T07:47:13.537Z,7.00
2022-11-15T07:49:40.395Z,7.00
2022-11-15T07:52:07.199Z,6.90
2022-11-15T07:54:34.386Z,7.10
2022-11-15T07:57:06.638Z,7.60
2022-11-15T07:59:35.902Z,7.90
2022-11-15T08:02:03.529Z,8.60
2022-11-15T08:04:30.419Z,8.70
2022-11-15T08:06:58.283Z,9.00
2022-11-15T08:09:25.195Z,9.20
2022-11-15T08:11:52.024Z,8.70
2022-11-15T08:14:18.853Z,8.70
2022-11-15T08:16:45.633Z,9.20
2022-11-15T08:19:12.448Z,9.80
2022-11-15T08:21:39.291Z,10.30
2022-11-15T08:24:06.740Z,10.80
2022-11-15T08:26:33.632Z,11.10
2022-11-15T08:29:00.450Z,11.30
2022-11-15T08:31:27.230Z,11.30
2022-11-15T08:33:54.106Z,11.50
2022-11-15T08:36:24.036Z,11.80
2022-11-15T08:38:50.893Z,12.30
2022-11-15T08:41:38.599Z,12.30
2022-11-15T08:44:06.180Z,12.70
2022-11-15T08:46:33.001Z,13.00
2022-11-15T08:48:59.792Z,13.10
2022-11-15T08:51:26.674Z,13.10
2022-11-15T08:53:53.481Z,13.50
2022-11-15T08:56:20.319Z,13.60
2022-11-15T08:58:47.873Z,13.60
2022-11-15T09:01:20.749Z,13.60
2022-11-15T09:03:47.776Z,14.00
2022-11-15T09:06:15.785Z,14.40
2022-11-15T09:08:49.824Z,14.80
2022-11-15T09:11:18.862Z,15.20
2022-11-15T09:13:45.836Z,15.80
2022-11-15T09:16:13.645Z,15.80
2022-11-15T09:18:40.447Z,15.80
2022-11-15T09:21:07.307Z,15.90
2022-11-15T09:23:34.451Z,16.30
2022-11-15T09:26:04.140Z,16.70
2022-11-15T09:28:32.503Z,16.90
2022-11-15T09:31:04.576Z,17.10
2022-11-15T09:33:31.896Z,17.10
2022-11-15T09:36:08.377Z,16.90
2022-11-15T09:38:35.960Z,16.90
2022-11-15T09:41:14.782Z,17.10
2022-11-15T09:44:00.201Z,17.10
2022-11-15T09:47:09.169Z,17.10
2022-11-15T09:49:36.090Z,17.10
2022-11-15T09:52:03.962Z,17.20
2022-11-15T09:54:56.220Z,16.90
2022-11-15T09:57:40.960Z,17.00
2022-11-15T10:03:22.241Z,17.90
2022-11-15T10:05:51.860Z,18.30
2022-11-15T10:09:01.827Z,18.40
2022-11-15T10:11:39.650Z,18.60
2022-11-15T10:14:21.468Z,18.50
2022-11-15T10:17:13.500Z,18.60
2022-11-15T10:20:06.013Z,18.40
2022-11-15T10:22:40.682Z,18.60
2022-11-15T10:25:10.380Z,19.20
2022-11-15T10:27:37.528Z,19.60
2022-11-15T10:30:12.268Z,20.30
2022-11-15T10:32:40.335Z,20.20
2022-11-15T10:35:29.097Z,19.40
2022-11-15T10:38:08.390Z,18.40
2022-11-15T10:40:36.748Z,18.40
2022-11-15T10:43:15.401Z,18.60
2022-11-15T10:45:42.760Z,18.70
2022-11-15T10:48:15.630Z,18.60
2022-11-15T10:50:45.747Z,18.70
2022-11-15T10:53:38.590Z,19.10
2022-11-15T10:56:13.107Z,19.40
2022-11-15T10:58:51.660Z,19.60
2022-11-15T11:01:23.732Z,19.40
2022-11-15T11:04:09.527Z,19.40
2022-11-15T11:06:54.089Z,19.60
2022-11-15T11:09:38.964Z,20.20
2022-11-15T11:12:12.188Z,20.60
2022-11-15T11:14:40.657Z,21.20
2022-11-15T11:17:34.518Z,21.40
2022-11-15T11:20:23.808Z,21.40
2022-11-15T11:23:12.481Z,21.90
2022-11-15T11:26:10.931Z,22.50
2022-11-15T11:28:52.859Z,22.90
2022-11-15T11:31:39.869Z,23.00
2022-11-15T11:34:59.368Z,23.00
2022-11-15T11:37:56.236Z,23.00
2022-11-15T11:40:46.292Z,22.60
2022-11-15T11:43:19.255Z,23.00
2022-11-15T11:46:05.219Z,23.50
2022-11-15T11:48:53.084Z,23.70
2022-11-15T11:51:25.167Z,24.40
2022-11-15T11:54:12.871Z,24.60
2022-11-15T11:56:43.954Z,24.60
2022-11-15T11:59:32.248Z,24.70
2022-11-15T12:02:12.241Z,24.90
2022-11-15T12:04:44.861Z,24.90
2022-11-15T12:07:22.705Z,25.00
2022-11-15T12:09:58.048Z,25.00
2022-11-15T12:12:59.045Z,25.20
2022-11-15T12:15:42.292Z,26.10
2022-11-15T12:18:15.525Z,25.60
2022-11-15T12:20:55.427Z,25.40
2022-11-15T12:23:40.687Z,25.50
2022-11-15T12:26:18.608Z,25.60
2022-11-15T12:29:09.012Z,25.80
2022-11-15T12:31:35.969Z,25.60
2022-11-15T12:34:23.106Z,26.20
2022-11-15T12:36:54.334Z,26.30
2022-11-15T12:39:21.898Z,25.90
2022-11-15T12:41:57.741Z,26.20
2022-11-15T12:44:50.219Z,25.80
2022-11-15T12:47:26.704Z,25.80
2022-11-15T12:49:53.910Z,26.10
2022-11-15T12:52:21.108Z,26.00
2022-11-15T12:54:57.467Z,25.40
2022-11-15T12:57:32.435Z,24.80
2022-11-15T13:00:28.235Z,24.40
2022-11-15T13:03:20.541Z,24.80
2022-11-15T13:05:52.781Z,25.20
2022-11-15T13:08:58.270Z,25.10
2022-11-15T13:11:45.689Z,25.30
2022-11-15T13:14:51.552Z,26.20
2022-11-15T13:17:21.014Z,27.20
2022-11-15T13:19:59.718Z,28.20
2022-11-15T13:22:47.072Z,28.50
2022-11-15T13:26:04.345Z,28.40
2022-11-15T13:28:46.205Z,27.20
2022-11-15T13:31:47.791Z,27.50
2022-11-15T13:34:51.141Z,28.00
2022-11-15T13:37:21.075Z,28.70
2022-11-15T13:39:50.841Z,28.90
2022-11-15T13:42:20.924Z,29.30
2022-11-15T13:45:03.093Z,28.70
2022-11-15T13:47:32.481Z,28.10
2022-11-15T13:50:01.779Z,27.80
2022-11-15T13:52:33.268Z,28.40
2022-11-15T13:55:08.817Z,28.80
2022-11-15T13:57:52.189Z,29.30
2022-11-15T14:00:38.063Z,29.60
2022-11-15T14:03:28.869Z,30.30
2022-11-15T14:06:18.450Z,29.40
2022-11-15T14:09:12.736Z,27.90
2022-11-15T14:11:55.416Z,26.90
2022-11-15T14:14:25.267Z,26.00
2022-11-15T14:17:01.368Z,24.60
2022-11-15T14:19:28.076Z,24.00
2022-11-15T14:22:16.045Z,23.30
2022-11-15T14:24:46.905Z,23.10
2022-11-15T14:27:29.144Z,23.20
2022-11-15T14:29:56.174Z,23.40
2022-11-15T14:32:27.128Z,23.80
2022-11-15T14:35:04.969Z,24.20
2022-11-15T14:37:35.674Z,24.40
2022-11-15T14:40:05.689Z,24.30
2022-11-15T14:42:32.820Z,24.40
2022-11-15T14:44:59.622Z,23.00
2022-11-15T14:47:26.408Z,22.00
2022-11-15T14:49:53.337Z,20.80
2022-11-15T14:52:33.054Z,20.40
2022-11-15T14:55:03.381Z,19.60
2022-11-15T14:57:31.151Z,18.30
2022-11-15T14:59:58.138Z,16.90
2022-11-15T15:02:27.859Z,15.80
2022-11-15T15:04:55.116Z,15.00
2022-11-15T15:07:22.099Z,14.40
2022-11-15T15:09:49.047Z,14.30
2022-11-15T15:12:24.223Z,14.00
2022-11-15T15:14:52.234Z,13.70
2022-11-15T15:17:19.246Z,13.30
2022-11-15T15:19:46.049Z,12.80
2022-11-15T15:22:20.138Z,12.50
2022-11-15T15:24:47.587Z,12.10
2022-11-15T15:27:14.819Z,11.80
2022-11-15T15:29:41.960Z,11.50
2022-11-15T15:32:10.948Z,11.30
2022-11-15T15:34:37.850Z,11.00
2022-11-15T15:37:09.402Z,10.80
2022-11-15T15:39:36.233Z,10.70
2022-11-15T15:42:04.806Z,10.60
2022-11-15T15:44:31.710Z,10.50
2022-11-15T15:46:58.864Z,10.40
2022-11-15T15:49:25.728Z,10.30
2022-11-15T15:51:52.593Z,10.20
2022-11-15T15:54:19.403Z,10.00
2022-11-15T15:56:46.207Z,9.90
2022-11-15T15:59:12.995Z,9.90
2022-11-15T16:01:39.809Z,9.80
2022-11-15T16:04:06.638Z,9.80
2022-11-15T16:06:40.262Z,9.70
2022-11-15T16:09:17.160Z,9.60
2022-11-15T16:11:46.802Z,9.50
2022-11-15T16:14:14.041Z,9.50
2022-11-15T16:16:40.879Z,9.40
2022-11-15T16:19:09.157Z,9.30
2022-11-15T16:21:35.975Z,9.20
2022-11-15T16:24:02.797Z,9.10
2022-11-15T16:26:30.805Z,9.00
2022-11-15T16:28:58.526Z,8.80
2022-11-15T16:31:25.339Z,8.50
2022-11-15T16:33:52.176Z,8.30
2022-11-15T16:36:28.661Z,8.20
2022-11-15T16:38:57.565Z,8.20
2022-11-15T16:41:24.341Z,8.10
2022-11-15T16:43:51.595Z,8.10
2022-11-15T16:46:20.809Z,8.10
2022-11-15T16:48:48.901Z,8.10
2022-11-15T16:51:16.525Z,8.10
2022-11-15T16:53:44.243Z,8.00
2022-11-15T16:56:28.354Z,8.00
2022-11-15T16:58:59.994Z,7.90
2022-11-15T17:01:33.241Z,7.80
2022-11-15T17:04:12.370Z,7.80
2022-11-15T17:06:44.490Z,7.80
2022-11-15T17:09:18.145Z,7.80
2022-11-15T17:11:45.103Z,7.80
2022-11-15T17:14:13.040Z,7.80
2022-11-15T17:16:42.485Z,7.80
2022-11-15T17:19:18.551Z,7.60
2022-11-15T17:21:46.331Z,7.60
2022-11-15T17:24:13.120Z,7.70
2022-11-15T17:26:41.088Z,7.70
2022-11-15T17:29:08.311Z,7.80
2022-11-15T17:31:38.996Z,7.70
2022-11-15T17:34:06.788Z,7.70
2022-11-15T17:36:34.825Z,7.70
2022-11-15T17:39:02.474Z,7.70
2022-11-15T17:41:30.644Z,7.80
2022-11-15T17:44:03.467Z,7.70
2022-11-15T17:46:30.784Z,7.70
2022-11-15T17:48:58.279Z,7.80
2022-11-15T17:51:25.549Z,7.70
2022-11-15T17:53:53.238Z,7.80
2022-11-15T17:56:23.368Z,7.90
2022-11-15T17:58:56.560Z,7.90
2022-11-15T18:01:33.000Z,7.80
2022-11-15T18:04:02.127Z,7.80
2022-11-15T18:06:32.664Z,7.90
2022-11-15T18:09:00.144Z,7.90
2022-11-15T18:11:34.263Z,7.90
2022-11-15T18:14:04.553Z,8.00
2022-11-15T18:16:35.230Z,8.00
2022-11-15T18:19:02.609Z,8.10
2022-11-15T18:21:33.888Z,8.10
2022-11-15T18:24:02.804Z,8.10
2022-11-15T18:26:31.025Z,8.00
2022-11-15T18:29:04.365Z,7.90
2022-11-15T18:31:32.250Z,7.90
2022-11-15T18:34:00.477Z,7.80
2022-11-15T18:36:30.573Z,7.80
2022-11-15T18:39:02.286Z,7.60
2022-11-15T18:41:29.691Z,7.80
2022-11-15T18:43:58.804Z,7.80
2022-11-15T18:46:30.656Z,7.80
2022-11-15T18:49:00.424Z,7.90
2022-11-15T18:51:31.024Z,7.90
2022-11-15T18:54:00.612Z,7.90
2022-11-15T18:56:29.412Z,8.00
2022-11-15T18:58:59.096Z,7.80
2022-11-15T19:01:36.137Z,7.40
2022-11-15T19:04:13.147Z,7.20
2022-11-15T19:06:43.245Z,6.90
2022-11-15T19:09:13.912Z,6.80
2022-11-15T19:11:41.004Z,6.80
2022-11-15T19:14:11.414Z,6.80
2022-11-15T19:16:49.994Z,6.80
2022-11-15T19:19:20.456Z,6.70
2022-11-15T19:21:47.739Z,6.70
2022-11-15T19:24:15.313Z,6.60
2022-11-15T19:26:42.526Z,6.60
2022-11-15T19:29:10.432Z,6.70
2022-11-15T19:31:38.272Z,6.70
2022-11-15T19:34:06.678Z,6.70
2022-11-15T19:36:40.457Z,6.70
2022-11-15T19:39:12.657Z,6.70
2022-11-15T19:41:42.670Z,6.80
2022-11-15T19:44:11.909Z,6.80
2022-11-15T19:46:39.274Z,6.80
2022-11-15T19:49:10.410Z,6.90
2022-11-15T19:51:39.111Z,6.90
2022-11-15T19:54:09.045Z,6.90
2022-11-15T19:56:37.608Z,6.90
2022-11-15T19:59:05.479Z,6.90
2022-11-15T20:01:39.678Z,6.90
2022-11-15T20:04:09.902Z,6.90
2022-11-15T20:06:41.323Z,6.90
2022-11-15T20:09:14.188Z,6.80
2022-11-15T20:11:42.285Z,6.80
2022-11-15T20:14:12.022Z,6.80
2022-11-15T20:16:40.423Z,6.80
2022-11-15T20:19:09.114Z,6.70
2022-11-15T20:21:36.393Z,6.60
2022-11-15T20:24:04.156Z,6.50
2022-11-15T20:26:32.342Z,6.50
2022-11-15T20:29:02.141Z,6.40
2022-11-15T20:31:30.514Z,6.60
2022-11-15T20:33:57.405Z,6.60
2022-11-15T20:36:24.258Z,6.60
2022-11-15T20:38:51.253Z,6.70
2022-11-15T20:41:18.658Z,6.70
2022-11-15T20:43:45.719Z,6.80
2022-11-15T20:46:13.019Z,6.80
2022-11-15T20:48:40.795Z,6.80
2022-11-15T20:51:18.751Z,6.90
2022-11-15T20:53:46.917Z,6.90
2022-11-15T20:56:21.579Z,6.90
2022-11-15T20:58:50.887Z,7.00
2022-11-15T21:01:23.806Z,7.00
2022-11-15T21:03:57.854Z,7.00
2022-11-15T21:06:27.084Z,7.00
2022-11-15T21:09:14.011Z,7.10
2022-11-15T21:11:59.781Z,7.10
2022-11-15T21:14:27.601Z,7.10
2022-11-15T21:16:54.496Z,7.10
2022-11-15T21:19:27.281Z,7.10
2022-11-15T21:21:58.652Z,7.00
2022-11-15T21:24:25.504Z,7.10
2022-11-15T21:26:52.840Z,7.10
2022-11-15T21:29:19.910Z,7.20
2022-11-15T21:31:49.038Z,7.10
2022-11-15T21:34:16.338Z,7.20
2022-11-15T21:36:43.572Z,7.20
2022-11-15T21:39:10.389Z,7.30
2022-11-15T21:41:37.255Z,7.40
2022-11-15T21:44:04.716Z,7.30
2022-11-15T21:46:32.590Z,7.40
2022-11-15T21:48:59.501Z,7.30
2022-11-15T21:51:26.345Z,7.40
2022-11-15T21:53:56.728Z,7.40
2022-11-15T21:56:25.626Z,7.30
2022-11-15T21:58:53.854Z,7.40
2022-11-15T22:01:41.455Z,7.30
2022-11-15T22:04:08.711Z,7.30
2022-11-15T22:06:35.874Z,7.30
2022-11-15T22:09:04.751Z,7.30
2022-11-15T22:11:32.512Z,7.20
2022-11-15T22:14:00.163Z,7.20
2022-11-15T22:16:26.965Z,7.20
2022-11-15T22:18:53.911Z,7.20
2022-11-15T22:21:21.988Z,7.10
2022-11-15T22:23:48.940Z,7.20
2022-11-15T22:26:22.990Z,7.10
2022-11-15T22:28:50.595Z,7.00
2022-11-15T22:31:17.462Z,6.90
2022-11-15T22:33:44.426Z,6.90
2022-11-15T22:36:12.837Z,6.80
2022-11-15T22:38:40.054Z,6.90
2022-11-15T22:41:06.895Z,6.80
2022-11-15T22:43:34.604Z,6.80
2022-11-15T22:46:03.911Z,6.70
2022-11-15T22:48:35.674Z,6.60
2022-11-15T22:51:04.024Z,6.50
2022-11-15T22:53:31.222Z,6.50
2022-11-15T22:56:01.558Z,6.50
2022-11-15T22:58:31.810Z,6.40
2022-11-15T23:01:01.625Z,6.50
2022-11-15T23:03:29.917Z,6.40
2022-11-15T23:06:06.026Z,6.30
2022-11-15T23:08:33.590Z,6.20
2022-11-15T23:11:21.976Z,6.10
2022-11-15T23:13:51.957Z,6.10
2022-11-15T23:16:22.587Z,6.00
2022-11-15T23:18:57.309Z,6.00
2022-11-15T23:21:51.731Z,6.00
2022-11-15T23:24:19.704Z,6.10
2022-11-15T23:26:49.497Z,6.10
2022-11-15T23:29:19.581Z,6.20
2022-11-15T23:32:05.228Z,6.30
2022-11-15T23:34:35.673Z,6.30
2022-11-15T23:37:02.540Z,6.40
2022-11-15T23:39:29.427Z,6.40
2022-11-15T23:41:56.732Z,6.40
2022-11-15T23:44:24.477Z,6.40
2022-11-15T23:46:51.497Z,6.40
2022-11-15T23:49:18.690Z,6.40
2022-11-15T23:51:45.786Z,6.30
2022-11-15T23:54:12.640Z,6.30
2022-11-15T23:56:40.087Z,6.30
2022-11-15T23:59:07.129Z,6.20
